sensor_id;sensor_type;location;lat;lon;timestamp;temperature;humidity
23188;DHT22;11762;59.878;17.686;2022-07-21T00:01:06;17.30;99.90
23188;DHT22;11762;59.878;17.686;2022-07-21T00:03:33;17.10;99.90
23188;DHT22;11762;59.878;17.686;2022-07-21T00:06:01;17.00;99.90
23188;DHT22;11762;59.878;17.686;2022-07-21T00:08:28;16.90;99.90
23188;DHT22;11762;59.878;17.686;2022-07-21T00:10:55;17.00;99.90
23188;DHT22;11762;59.878;17.686;2022-07-21T00:13:24;17.00;99.90
23188;DHT22;11762;59.878;17.686;2022-07-21T00:15:51;17.10;99.90
23188;DHT22;11762;59.878;17.686;2022-07-21T00:18:19;17.10;99.90
23188;DHT22;11762;59.878;17.686;2022-07-21T00:20:46;17.20;99.90
23188;DHT22;11762;59.878;17.686;2022-07-21T00:23:13;17.20;99.90
23188;DHT22;11762;59.878;17.686;2022-07-21T00:25:41;17.20;99.90
23188;DHT22;11762;59.878;17.686;2022-07-21T00:28:08;17.10;99.90
23188;DHT22;11762;59.878;17.686;2022-07-21T00:30:36;17.10;99.90
23188;DHT22;11762;59.878;17.686;2022-07-21T00:33:03;17.10;99.90
23188;DHT22;11762;59.878;17.686;2022-07-21T00:35:30;17.10;99.90
23188;DHT22;11762;59.878;17.686;2022-07-21T00:37:57;17.10;99.90
23188;DHT22;11762;59.878;17.686;2022-07-21T00:40:24;17.00;99.90
23188;DHT22;11762;59.878;17.686;2022-07-21T00:42:52;16.90;99.90
23188;DHT22;11762;59.878;17.686;2022-07-21T00:45:19;16.80;99.90
23188;DHT22;11762;59.878;17.686;2022-07-21T00:47:47;16.70;99.90
23188;DHT22;11762;59.878;17.686;2022-07-21T00:50:16;16.70;99.90
23188;DHT22;11762;59.878;17.686;2022-07-21T00:52:44;16.70;99.90
23188;DHT22;11762;59.878;17.686;2022-07-21T00:55:13;16.80;99.90
23188;DHT22;11762;59.878;17.686;2022-07-21T00:57:41;16.80;99.90
23188;DHT22;11762;59.878;17.686;2022-07-21T01:00:12;16.70;99.90
23188;DHT22;11762;59.878;17.686;2022-07-21T01:02:39;16.70;99.90
23188;DHT22;11762;59.878;17.686;2022-07-21T01:05:10;16.60;99.90
23188;DHT22;11762;59.878;17.686;2022-07-21T01:07:40;16.60;99.90
23188;DHT22;11762;59.878;17.686;2022-07-21T01:10:08;16.50;99.90
23188;DHT22;11762;59.878;17.686;2022-07-21T01:12:36;16.50;99.90
23188;DHT22;11762;59.878;17.686;2022-07-21T01:15:04;16.50;99.90
23188;DHT22;11762;59.878;17.686;2022-07-21T01:17:31;16.50;99.90
23188;DHT22;11762;59.878;17.686;2022-07-21T01:20:02;16.40;99.90
23188;DHT22;11762;59.878;17.686;2022-07-21T01:22:31;16.40;99.90
23188;DHT22;11762;59.878;17.686;2022-07-21T01:24:58;16.40;99.90
23188;DHT22;11762;59.878;17.686;2022-07-21T01:27:26;16.50;99.90
23188;DHT22;11762;59.878;17.686;2022-07-21T01:29:53;16.50;99.90
23188;DHT22;11762;59.878;17.686;2022-07-21T01:32:21;16.40;99.90
23188;DHT22;11762;59.878;17.686;2022-07-21T01:34:48;16.40;99.90
23188;DHT22;11762;59.878;17.686;2022-07-21T01:37:19;16.40;99.90
23188;DHT22;11762;59.878;17.686;2022-07-21T01:39:48;16.30;99.90
23188;DHT22;11762;59.878;17.686;2022-07-21T01:42:32;16.30;99.90
23188;DHT22;11762;59.878;17.686;2022-07-21T01:44:59;16.20;99.90
23188;DHT22;11762;59.878;17.686;2022-07-21T01:47:26;16.10;99.90
23188;DHT22;11762;59.878;17.686;2022-07-21T01:49:53;16.10;99.90
23188;DHT22;11762;59.878;17.686;2022-07-21T01:52:20;16.00;99.90
23188;DHT22;11762;59.878;17.686;2022-07-21T01:54:49;16.10;99.90
23188;DHT22;11762;59.878;17.686;2022-07-21T01:57:16;16.10;99.90
23188;DHT22;11762;59.878;17.686;2022-07-21T01:59:43;16.10;99.90
23188;DHT22;11762;59.878;17.686;2022-07-21T02:02:10;16.20;99.90
23188;DHT22;11762;59.878;17.686;2022-07-21T02:04:37;16.10;99.90
23188;DHT22;11762;59.878;17.686;2022-07-21T02:07:04;16.20;99.90
23188;DHT22;11762;59.878;17.686;2022-07-21T02:09:31;16.20;99.90
23188;DHT22;11762;59.878;17.686;2022-07-21T02:12:00;16.20;99.90
23188;DHT22;11762;59.878;17.686;2022-07-21T02:14:27;16.20;99.90
23188;DHT22;11762;59.878;17.686;2022-07-21T02:16:54;16.30;99.90
23188;DHT22;11762;59.878;17.686;2022-07-21T02:19:21;16.40;99.90
23188;DHT22;11762;59.878;17.686;2022-07-21T02:21:48;16.40;99.90
23188;DHT22;11762;59.878;17.686;2022-07-21T02:24:15;16.40;99.90
23188;DHT22;11762;59.878;17.686;2022-07-21T02:26:42;16.40;99.90
23188;DHT22;11762;59.878;17.686;2022-07-21T02:29:10;16.30;99.90
23188;DHT22;11762;59.878;17.686;2022-07-21T02:31:37;16.20;99.90
23188;DHT22;11762;59.878;17.686;2022-07-21T02:34:04;16.20;99.90
23188;DHT22;11762;59.878;17.686;2022-07-21T02:36:32;16.20;99.90
23188;DHT22;11762;59.878;17.686;2022-07-21T02:38:59;16.20;99.90
23188;DHT22;11762;59.878;17.686;2022-07-21T02:41:26;16.20;99.90
23188;DHT22;11762;59.878;17.686;2022-07-21T02:43:53;16.20;99.90
23188;DHT22;11762;59.878;17.686;2022-07-21T02:46:21;16.20;99.90
23188;DHT22;11762;59.878;17.686;2022-07-21T02:48:48;16.20;99.90
23188;DHT22;11762;59.878;17.686;2022-07-21T02:51:15;16.20;99.90
23188;DHT22;11762;59.878;17.686;2022-07-21T02:53:42;16.30;99.90
23188;DHT22;11762;59.878;17.686;2022-07-21T02:56:09;16.40;99.90
23188;DHT22;11762;59.878;17.686;2022-07-21T02:58:36;16.50;99.90
23188;DHT22;11762;59.878;17.686;2022-07-21T03:01:05;16.70;99.90
23188;DHT22;11762;59.878;17.686;2022-07-21T03:03:35;16.90;99.90
23188;DHT22;11762;59.878;17.686;2022-07-21T03:06:03;17.20;99.90
23188;DHT22;11762;59.878;17.686;2022-07-21T03:08:31;17.30;99.90
23188;DHT22;11762;59.878;17.686;2022-07-21T03:10:58;17.40;99.90
23188;DHT22;11762;59.878;17.686;2022-07-21T03:13:25;17.50;99.90
23188;DHT22;11762;59.878;17.686;2022-07-21T03:15:52;17.70;99.90
23188;DHT22;11762;59.878;17.686;2022-07-21T03:18:19;17.70;99.90
23188;DHT22;11762;59.878;17.686;2022-07-21T03:20:48;17.60;99.90
23188;DHT22;11762;59.878;17.686;2022-07-21T03:23:15;17.40;99.90
23188;DHT22;11762;59.878;17.686;2022-07-21T03:25:42;17.30;99.90
23188;DHT22;11762;59.878;17.686;2022-07-21T03:28:09;17.30;99.90
23188;DHT22;11762;59.878;17.686;2022-07-21T03:30:36;17.70;99.90
23188;DHT22;11762;59.878;17.686;2022-07-21T03:33:04;18.10;99.90
23188;DHT22;11762;59.878;17.686;2022-07-21T03:35:31;18.30;99.90
23188;DHT22;11762;59.878;17.686;2022-07-21T03:38:00;18.60;99.90
23188;DHT22;11762;59.878;17.686;2022-07-21T03:40:29;18.60;99.90
23188;DHT22;11762;59.878;17.686;2022-07-21T03:42:58;18.50;99.90
23188;DHT22;11762;59.878;17.686;2022-07-21T03:45:26;18.30;99.90
23188;DHT22;11762;59.878;17.686;2022-07-21T03:47:56;18.00;99.90
23188;DHT22;11762;59.878;17.686;2022-07-21T03:50:23;17.70;99.90
23188;DHT22;11762;59.878;17.686;2022-07-21T03:52:51;17.50;99.90
23188;DHT22;11762;59.878;17.686;2022-07-21T03:55:20;17.30;99.90
23188;DHT22;11762;59.878;17.686;2022-07-21T03:57:49;17.30;99.90
23188;DHT22;11762;59.878;17.686;2022-07-21T04:00:19;17.30;99.90
23188;DHT22;11762;59.878;17.686;2022-07-21T04:02:47;17.30;99.90
23188;DHT22;11762;59.878;17.686;2022-07-21T04:05:15;17.40;99.90
23188;DHT22;11762;59.878;17.686;2022-07-21T04:07:44;17.40;99.90
23188;DHT22;11762;59.878;17.686;2022-07-21T04:10:13;17.50;99.90
23188;DHT22;11762;59.878;17.686;2022-07-21T04:12:43;17.60;99.90
23188;DHT22;11762;59.878;17.686;2022-07-21T04:15:11;17.70;99.90
23188;DHT22;11762;59.878;17.686;2022-07-21T04:17:38;17.80;99.90
23188;DHT22;11762;59.878;17.686;2022-07-21T04:20:07;18.00;99.90
23188;DHT22;11762;59.878;17.686;2022-07-21T04:22:35;18.10;99.90
23188;DHT22;11762;59.878;17.686;2022-07-21T04:25:02;18.30;99.90
23188;DHT22;11762;59.878;17.686;2022-07-21T04:27:30;18.50;99.90
23188;DHT22;11762;59.878;17.686;2022-07-21T04:29:59;18.80;99.90
23188;DHT22;11762;59.878;17.686;2022-07-21T04:32:26;19.00;99.90
23188;DHT22;11762;59.878;17.686;2022-07-21T04:34:53;19.30;99.90
23188;DHT22;11762;59.878;17.686;2022-07-21T04:37:20;19.60;99.90
23188;DHT22;11762;59.878;17.686;2022-07-21T04:39:47;19.90;99.90
23188;DHT22;11762;59.878;17.686;2022-07-21T04:42:14;20.20;99.90
23188;DHT22;11762;59.878;17.686;2022-07-21T04:44:42;20.40;99.90
23188;DHT22;11762;59.878;17.686;2022-07-21T04:47:10;20.70;99.90
23188;DHT22;11762;59.878;17.686;2022-07-21T04:49:37;20.90;99.90
23188;DHT22;11762;59.878;17.686;2022-07-21T04:52:05;21.20;99.90
23188;DHT22;11762;59.878;17.686;2022-07-21T04:54:32;21.40;99.90
23188;DHT22;11762;59.878;17.686;2022-07-21T04:56:59;21.70;99.90
23188;DHT22;11762;59.878;17.686;2022-07-21T04:59:28;22.00;99.90
23188;DHT22;11762;59.878;17.686;2022-07-21T05:01:56;22.30;99.90
23188;DHT22;11762;59.878;17.686;2022-07-21T05:04:25;22.40;99.90
23188;DHT22;11762;59.878;17.686;2022-07-21T05:06:52;22.70;99.90
23188;DHT22;11762;59.878;17.686;2022-07-21T05:09:20;23.40;99.90
23188;DHT22;11762;59.878;17.686;2022-07-21T05:11:47;24.20;99.90
